Time;durP1;ratioP1;P1;durP2;ratioP2;P2;SDS_P1;SDS_P2;PMS_P1;PMS_P2;Temp;Humidity;BMP_temperature;BMP_pressure;BME280_temperature;BME280_humidity;BME280_pressure;Samples;Min_cycle;Max_cycle;Signal;HPM_P1;HPM_P2
2022/06/02 00:04:47;;;;;;;1.70;1.20;;;24.00;47.30;;;;;;5032503;28;20426;-87
2022/06/02 00:07:33;;;;;;;1.40;1.30;;;24.00;47.40;;;;;;5030942;28;20434;-87
2022/06/02 00:10:29;;;;;;;2.63;1.20;;;24.00;47.50;;;;;;5027258;28;20423;-87
2022/06/02 00:13:24;;;;;;;1.27;1.17;;;24.10;47.70;;;;;;5032937;28;20418;-86
2022/06/02 00:15:56;;;;;;;1.13;1.03;;;24.00;47.60;;;;;;5031098;28;20458;-87
2022/06/02 00:19:02;;;;;;;1.60;1.10;;;24.00;47.50;;;;;;5047369;28;20407;-87
2022/06/02 00:21:38;;;;;;;1.33;1.20;;;24.00;47.40;;;;;;5031300;28;20415;-87
2022/06/02 00:24:28;;;;;;;1.27;1.17;;;24.00;47.40;;;;;;5031537;28;20456;-87
2022/06/02 00:27:14;;;;;;;1.50;1.10;;;24.00;47.30;;;;;;5031336;28;20423;-87
2022/06/02 00:29:46;;;;;;;1.23;1.13;;;24.00;47.40;;;;;;5031850;28;20403;-87
2022/06/02 00:32:21;;;;;;;1.70;1.30;;;24.00;47.40;;;;;;5047309;28;20443;-87
2022/06/02 00:35:10;;;;;;;1.63;1.13;;;24.00;47.40;;;;;;5032140;28;20407;-87
2022/06/02 00:38:04;;;;;;;2.80;1.40;;;24.00;47.40;;;;;;5047585;28;20454;-86
2022/06/02 00:40:33;;;;;;;1.30;1.20;;;24.00;47.30;;;;;;5030889;28;20422;-87
2022/06/02 00:43:10;;;;;;;1.40;1.20;;;24.00;47.40;;;;;;5031666;28;20475;-86
2022/06/02 00:45:44;;;;;;;1.57;1.20;;;24.00;47.40;;;;;;5031537;28;20391;-87
2022/06/02 00:48:13;;;;;;;1.20;1.00;;;24.00;47.40;;;;;;5029343;28;20410;-86
2022/06/02 00:50:52;;;;;;;1.63;1.50;;;24.00;47.40;;;;;;5030764;28;20415;-86
2022/06/02 00:53:25;;;;;;;1.10;1.00;;;24.00;48.00;;;;;;5031227;28;20415;-86
2022/06/02 00:59:13;;;;;;;1.10;0.90;;;24.00;47.60;;;;;;5030547;28;20379;-86
2022/06/02 01:01:38;;;;;;;1.50;1.27;;;24.00;47.70;;;;;;5046636;28;20917;-86
2022/06/02 01:04:11;;;;;;;1.43;1.30;;;24.00;47.80;;;;;;5031136;28;20403;-87
2022/06/02 01:07:07;;;;;;;1.40;1.20;;;24.00;47.90;;;;;;5030833;28;20153;-87
2022/06/02 01:10:00;;;;;;;1.37;1.20;;;24.00;47.80;;;;;;5046503;28;20414;-87
2022/06/02 01:12:41;;;;;;;1.53;1.40;;;24.00;47.80;;;;;;5046050;28;20442;-87
2022/06/02 01:15:28;;;;;;;1.50;1.40;;;24.00;47.80;;;;;;5029759;28;20482;-87
2022/06/02 01:18:35;;;;;;;1.43;1.30;;;24.00;47.90;;;;;;5029440;28;20416;-86
2022/06/02 01:21:15;;;;;;;2.27;1.20;;;24.10;47.90;;;;;;5047059;28;20416;-87
2022/06/02 01:23:58;;;;;;;1.20;1.10;;;24.00;47.80;;;;;;5048689;28;20419;-87
2022/06/02 01:26:50;;;;;;;1.90;1.30;;;24.00;47.70;;;;;;5047084;28;20976;-87
2022/06/02 01:29:34;;;;;;;2.20;1.40;;;24.00;47.70;;;;;;5048088;28;20434;-87
2022/06/02 01:32:14;;;;;;;1.37;1.27;;;24.00;47.50;;;;;;5033436;28;20411;-86
2022/06/02 01:34:55;;;;;;;1.77;1.53;;;24.00;47.50;;;;;;5031362;28;20388;-87
2022/06/02 01:37:42;;;;;;;1.23;1.13;;;24.00;47.70;;;;;;5033715;28;20478;-87
2022/06/02 01:40:27;;;;;;;1.73;1.13;;;24.00;47.70;;;;;;5032230;28;20394;-85
2022/06/02 01:42:55;;;;;;;1.20;1.07;;;24.00;47.60;;;;;;5029575;28;20384;-87
2022/06/02 01:45:33;;;;;;;1.40;1.30;;;24.00;47.50;;;;;;5043265;28;20411;-85
2022/06/02 01:48:29;;;;;;;1.43;1.30;;;24.00;47.30;;;;;;5040686;28;20411;-86
2022/06/02 01:51:22;;;;;;;1.40;1.30;;;24.00;47.40;;;;;;5025442;28;20446;-86
2022/06/02 01:54:00;;;;;;;2.13;1.40;;;24.00;47.40;;;;;;5041542;28;20418;-85
2022/06/02 01:56:26;;;;;;;1.90;1.37;;;24.00;47.30;;;;;;5025875;28;20450;-86
2022/06/02 02:02:32;;;;;;;1.57;1.20;;;24.00;47.20;;;;;;5025673;28;20179;-87
2022/06/02 02:05:22;;;;;;;1.30;1.20;;;24.00;47.30;;;;;;5025408;28;20395;-85
2022/06/02 02:07:51;;;;;;;2.30;1.07;;;24.00;47.30;;;;;;5024259;28;20420;-87
2022/06/02 02:10:24;;;;;;;2.20;1.67;;;23.90;47.20;;;;;;5041448;28;20463;-87
2022/06/02 02:13:25;;;;;;;1.13;1.03;;;23.90;47.30;;;;;;5026230;28;20400;-86
2022/06/02 02:16:12;;;;;;;1.20;1.10;;;24.00;47.50;;;;;;5024944;28;20458;-87
2022/06/02 02:18:56;;;;;;;3.43;1.10;;;23.90;47.50;;;;;;5041241;28;20918;-86
2022/06/02 02:21:32;;;;;;;1.40;1.30;;;23.90;47.50;;;;;;5025216;28;20392;-86
2022/06/02 02:24:19;;;;;;;1.20;1.10;;;23.90;47.50;;;;;;5040925;28;20419;-87
2022/06/02 02:27:07;;;;;;;1.30;1.20;;;23.90;47.40;;;;;;5040722;28;20438;-87
2022/06/02 02:30:05;;;;;;;1.60;1.50;;;23.90;48.10;;;;;;5025356;28;20394;-87
2022/06/02 02:32:46;;;;;;;1.30;1.20;;;23.90;47.50;;;;;;5024635;28;20435;-86
2022/06/02 02:35:20;;;;;;;1.53;1.43;;;23.90;47.60;;;;;;5025477;28;20403;-86
2022/06/02 02:37:46;;;;;;;1.40;1.27;;;23.90;47.70;;;;;;5024416;28;20533;-87
2022/06/02 02:40:35;;;;;;;1.33;1.10;;;23.90;47.80;;;;;;5025484;28;20411;-86
2022/06/02 02:43:21;;;;;;;1.50;1.30;;;24.00;47.70;;;;;;5014726;28;20184;-87
2022/06/02 02:46:09;;;;;;;3.93;1.40;;;23.90;47.40;;;;;;5040679;28;20443;-86
2022/06/02 02:49:12;;;;;;;1.20;1.10;;;23.90;47.40;;;;;;5023736;28;20485;-87
2022/06/02 02:52:21;;;;;;;1.30;0.97;;;23.90;47.30;;;;;;5024194;28;20423;-86
2022/06/02 02:55:06;;;;;;;1.40;1.30;;;23.90;47.30;;;;;;5022944;28;20419;-87
2022/06/02 02:57:51;;;;;;;2.00;1.57;;;23.90;47.30;;;;;;5022634;28;20502;-87
2022/06/02 03:00:25;;;;;;;1.30;1.20;;;23.90;47.20;;;;;;5024638;28;20400;-86
2022/06/02 03:03:17;;;;;;;1.30;1.13;;;23.90;47.20;;;;;;5039954;28;20784;-86
2022/06/02 03:05:56;;;;;;;1.67;1.57;;;23.90;47.40;;;;;;5025123;28;20479;-86
2022/06/02 03:08:31;;;;;;;1.20;1.10;;;23.90;47.40;;;;;;5040050;28;20928;-86
2022/06/02 03:11:11;;;;;;;1.30;1.20;;;23.90;47.40;;;;;;5023928;28;20403;-86
2022/06/02 03:13:54;;;;;;;1.20;1.10;;;23.90;47.40;;;;;;5025040;28;20418;-86
2022/06/02 03:16:21;;;;;;;1.20;1.00;;;23.90;47.40;;;;;;5040039;28;20482;-86
2022/06/02 03:18:47;;;;;;;1.70;1.30;;;23.90;47.30;;;;;;5024192;28;20418;-86
2022/06/02 03:21:18;;;;;;;1.60;1.40;;;23.90;47.90;;;;;;5039997;28;20415;-86
2022/06/02 03:24:40;;;;;;;1.50;1.33;;;23.90;47.40;;;;;;5025001;28;20539;-86
2022/06/02 03:27:17;;;;;;;1.17;1.00;;;23.90;47.30;;;;;;5002551;28;20443;-86
2022/06/02 03:29:49;;;;;;;1.30;1.13;;;23.80;47.30;;;;;;5024537;28;20433;-86
2022/06/02 03:32:42;;;;;;;2.60;1.27;;;23.90;47.40;;;;;;5024355;28;20414;-86
2022/06/02 03:35:24;;;;;;;1.50;1.40;;;23.90;47.40;;;;;;5039828;28;20443;-86
2022/06/02 03:37:59;;;;;;;1.23;1.13;;;23.90;47.90;;;;;;5024185;28;20471;-86
2022/06/02 03:40:31;;;;;;;1.30;1.07;;;23.80;47.20;;;;;;5024389;28;20387;-86
2022/06/02 03:43:19;;;;;;;2.43;1.30;;;23.80;47.30;;;;;;5024585;28;20411;-86
2022/06/02 03:46:04;;;;;;;1.33;1.23;;;23.80;47.30;;;;;;5023315;28;20443;-86
2022/06/02 03:51:55;;;;;;;1.63;1.20;;;23.80;47.40;;;;;;5024928;28;20378;-86
2022/06/02 03:54:49;;;;;;;1.30;1.07;;;23.80;47.40;;;;;;5040190;28;20408;-86
2022/06/02 03:57:22;;;;;;;1.13;1.03;;;23.80;47.40;;;;;;5029299;28;20458;-86
2022/06/02 04:00:33;;;;;;;1.83;1.27;;;23.80;47.40;;;;;;5042178;28;20917;-85
2022/06/02 04:03:06;;;;;;;1.60;1.30;;;23.80;47.40;;;;;;5020522;28;20423;-85
2022/06/02 04:05:46;;;;;;;1.33;1.17;;;23.80;47.50;;;;;;5027177;28;20438;-85
2022/06/02 04:08:49;;;;;;;1.40;1.20;;;23.80;47.60;;;;;;5041097;28;20434;-85
2022/06/02 04:11:22;;;;;;;1.60;1.20;;;23.80;47.80;;;;;;5028749;28;20412;-85
2022/06/02 04:14:11;;;;;;;2.00;1.10;;;23.80;48.00;;;;;;5025590;28;20920;-85
2022/06/02 04:17:04;;;;;;;1.87;1.10;;;23.90;48.10;;;;;;5025216;28;20469;-86
2022/06/02 04:22:23;;;;;;;1.77;1.50;;;23.90;48.10;;;;;;5025684;28;20928;-86
2022/06/02 04:25:07;;;;;;;1.43;1.33;;;23.90;47.70;;;;;;5028427;28;20449;-86
2022/06/02 04:27:44;;;;;;;1.70;1.57;;;23.90;47.50;;;;;;5028408;28;20412;-86
2022/06/02 04:30:33;;;;;;;1.57;1.20;;;23.90;47.50;;;;;;5028196;28;20433;-87
2022/06/02 04:33:43;;;;;;;2.23;1.40;;;23.90;47.60;;;;;;5025878;28;20777;-86
2022/06/02 04:36:24;;;;;;;1.83;1.20;;;23.90;47.80;;;;;;5024136;28;20459;-85
2022/06/02 04:39:10;;;;;;;2.17;1.33;;;23.90;47.70;;;;;;5042807;28;20407;-84
2022/06/02 04:41:42;;;;;;;1.30;1.20;;;23.90;47.50;;;;;;5042579;28;20407;-86
2022/06/02 04:44:13;;;;;;;1.70;1.47;;;23.90;47.50;;;;;;5027518;28;20433;-85
2022/06/02 04:46:47;;;;;;;1.37;1.23;;;23.90;47.40;;;;;;5027710;28;20396;-85
2022/06/02 04:49:23;;;;;;;1.30;1.20;;;23.90;47.40;;;;;;5025650;28;20415;-86
2022/06/02 04:52:27;;;;;;;1.30;1.20;;;23.90;47.50;;;;;;5027612;28;20403;-85
2022/06/02 04:55:06;;;;;;;1.63;1.50;;;23.90;47.50;;;;;;5027121;28;20430;-85
2022/06/02 04:58:01;;;;;;;1.20;1.10;;;23.90;47.70;;;;;;5027815;28;20454;-85
2022/06/02 05:00:43;;;;;;;1.33;1.20;;;23.90;47.70;;;;;;5018086;28;20530;-86
2022/06/02 05:03:42;;;;;;;1.17;1.07;;;23.90;47.70;;;;;;5027065;28;20522;-86
2022/06/02 05:06:27;;;;;;;1.47;1.30;;;23.90;47.80;;;;;;5028051;28;20748;-86
2022/06/02 05:09:22;;;;;;;1.93;1.47;;;24.00;47.80;;;;;;5025541;28;20446;-85
2022/06/02 05:11:59;;;;;;;1.63;1.53;;;23.90;47.40;;;;;;5005615;28;20466;-85
2022/06/02 05:14:54;;;;;;;1.73;1.33;;;23.90;47.20;;;;;;5006473;28;20420;-86
2022/06/02 05:17:48;;;;;;;1.77;1.67;;;23.90;47.30;;;;;;5005468;28;20483;-86
2022/06/02 05:20:32;;;;;;;1.87;1.53;;;23.90;47.40;;;;;;5006159;28;20871;-86
2022/06/02 05:23:41;;;;;;;1.50;1.33;;;23.90;47.50;;;;;;5021194;28;20404;-86
2022/06/02 05:26:48;;;;;;;1.67;1.40;;;23.90;47.60;;;;;;5021451;28;20470;-86
2022/06/02 05:29:36;;;;;;;1.90;1.70;;;23.90;47.60;;;;;;5010603;28;20407;-86
2022/06/02 05:32:22;;;;;;;3.10;1.60;;;23.90;47.70;;;;;;5037968;28;20420;-86
2022/06/02 05:35:14;;;;;;;2.37;1.57;;;23.90;47.70;;;;;;5020252;28;20430;-86
2022/06/02 05:38:14;;;;;;;1.70;1.50;;;23.90;47.80;;;;;;5007652;28;20475;-86
2022/06/02 05:40:45;;;;;;;2.77;1.77;;;24.00;47.70;;;;;;5024306;28;20606;-86
2022/06/02 05:43:40;;;;;;;2.40;1.40;;;24.00;47.60;;;;;;5044858;28;20843;-86
2022/06/02 05:46:26;;;;;;;1.47;1.30;;;24.00;47.30;;;;;;5005889;28;20393;-86
2022/06/02 05:48:51;;;;;;;1.70;1.60;;;24.00;47.40;;;;;;5005941;28;20397;-86
2022/06/02 05:51:33;;;;;;;1.80;1.63;;;24.00;47.70;;;;;;5021382;28;20423;-85
2022/06/02 05:54:34;;;;;;;3.47;1.73;;;24.00;47.50;;;;;;5006300;28;20156;-86
2022/06/02 05:57:13;;;;;;;1.93;1.63;;;24.00;46.80;;;;;;5020258;28;20462;-85
2022/06/02 05:59:39;;;;;;;2.80;1.43;;;23.90;46.50;;;;;;5022825;28;20423;-85
2022/06/02 06:02:19;;;;;;;1.47;1.37;;;23.90;46.70;;;;;;5024840;28;20411;-85
2022/06/02 06:04:45;;;;;;;1.60;1.50;;;23.90;46.80;;;;;;5040144;28;20179;-86
2022/06/02 06:07:52;;;;;;;2.23;1.60;;;23.90;47.00;;;;;;5023045;28;20506;-85
2022/06/02 06:10:34;;;;;;;1.20;1.10;;;23.90;47.10;;;;;;5006544;28;20192;-86
2022/06/02 06:13:07;;;;;;;2.00;1.70;;;23.90;47.30;;;;;;5021913;28;21006;-86
2022/06/02 06:15:47;;;;;;;1.50;1.40;;;23.90;47.50;;;;;;5024975;28;20396;-85
2022/06/02 06:18:41;;;;;;;1.57;1.33;;;23.90;47.50;;;;;;5033391;28;20410;-85
2022/06/02 06:21:18;;;;;;;3.00;1.50;;;24.00;47.70;;;;;;5024114;28;20411;-85
2022/06/02 06:24:03;;;;;;;5.73;1.80;;;23.90;47.70;;;;;;5036545;28;20408;-85
2022/06/02 06:26:50;;;;;;;2.40;1.67;;;24.00;47.70;;;;;;5031955;28;20438;-85
2022/06/02 06:29:45;;;;;;;1.77;1.40;;;24.00;47.70;;;;;;5023428;28;20427;-86
2022/06/02 06:32:42;;;;;;;1.40;1.20;;;24.00;47.80;;;;;;5058983;28;20407;-88
2022/06/02 06:35:29;;;;;;;1.80;1.30;;;24.00;47.80;;;;;;5043283;28;20415;-87
2022/06/02 06:38:26;;;;;;;1.63;1.33;;;24.00;47.80;;;;;;5026579;28;20466;-85
2022/06/02 06:41:14;;;;;;;1.70;1.50;;;24.00;47.50;;;;;;5023944;28;20428;-85
2022/06/02 06:43:57;;;;;;;1.83;1.67;;;24.00;47.40;;;;;;5039328;28;20407;-86
2022/06/02 06:46:30;;;;;;;2.10;1.53;;;24.00;47.20;;;;;;5023890;28;20506;-86
2022/06/02 06:49:09;;;;;;;3.10;1.30;;;24.00;47.00;;;;;;5017367;28;20466;-86
2022/06/02 06:52:26;;;;;;;2.00;1.73;;;24.00;47.20;;;;;;5007935;28;20400;-84
2022/06/02 06:55:04;;;;;;;1.77;1.47;;;24.00;47.20;;;;;;4993206;28;20412;-85
2022/06/02 06:58:07;;;;;;;1.83;1.50;;;24.00;47.20;;;;;;5023688;28;20459;-85
2022/06/02 07:00:53;;;;;;;3.37;1.70;;;24.00;47.30;;;;;;4977129;28;20419;-85
2022/06/02 07:03:46;;;;;;;2.13;1.50;;;24.00;47.50;;;;;;5007342;28;20412;-85
2022/06/02 07:06:19;;;;;;;3.43;1.37;;;24.00;47.20;;;;;;5011869;28;20419;-85
2022/06/02 07:09:02;;;;;;;1.80;1.33;;;24.00;46.90;;;;;;5042657;28;20411;-85
2022/06/02 07:15:00;;;;;;;1.27;1.13;;;24.00;47.10;;;;;;5028227;28;20389;-85
2022/06/02 07:17:32;;;;;;;1.40;1.30;;;24.00;47.10;;;;;;5026978;28;20454;-85
2022/06/02 07:20:30;;;;;;;1.43;1.20;;;24.00;47.10;;;;;;5043196;28;20443;-85
2022/06/02 07:23:17;;;;;;;3.77;1.40;;;24.00;47.10;;;;;;5008682;28;20502;-85
2022/06/02 07:26:19;;;;;;;;;;;;;;;;;;;;;
2022/06/02 07:29:29;;;;;;;1.30;1.20;;;23.90;46.60;;;;;;5026012;28;20443;-85
2022/06/02 07:32:30;;;;;;;5.30;1.57;;;23.90;47.00;;;;;;5009621;28;20403;-85
2022/06/02 07:35:19;;;;;;;2.30;1.40;;;23.90;47.10;;;;;;5008865;28;20406;-85
2022/06/02 07:38:12;;;;;;;1.50;1.20;;;23.90;47.10;;;;;;5011984;28;21068;-85
2022/06/02 07:40:55;;;;;;;1.83;1.30;;;23.90;47.00;;;;;;4989181;28;20960;-85
2022/06/02 07:43:52;;;;;;;3.83;1.73;;;23.90;47.00;;;;;;5006244;28;20407;-85
2022/06/02 07:46:26;;;;;;;1.30;1.20;;;23.90;46.50;;;;;;5008464;28;20411;-86
2022/06/02 07:49:04;;;;;;;3.07;1.23;;;23.90;46.70;;;;;;5025694;28;20404;-85
2022/06/02 07:51:52;;;;;;;2.00;1.40;;;23.90;46.80;;;;;;5025290;28;20415;-85
2022/06/02 07:54:28;;;;;;;1.87;1.50;;;23.90;46.80;;;;;;5025207;28;20414;-86
2022/06/02 07:57:07;;;;;;;2.23;1.23;;;23.90;46.70;;;;;;5011098;28;20454;-85
2022/06/02 07:59:50;;;;;;;2.23;1.60;;;23.90;46.50;;;;;;5029776;28;20414;-86
2022/06/02 08:02:59;;;;;;;1.30;1.20;;;23.90;45.90;;;;;;5046169;28;20452;-85
2022/06/02 08:06:19;;;;;;;1.73;1.30;;;23.90;45.90;;;;;;5029675;28;20411;-85
2022/06/02 08:08:54;;;;;;;1.60;1.20;;;23.90;46.10;;;;;;5028998;28;20423;-85
2022/06/02 08:11:37;;;;;;;1.73;1.40;;;23.80;45.60;;;;;;5026913;28;20413;-85
2022/06/02 08:14:31;;;;;;;1.23;1.13;;;23.80;45.70;;;;;;5029943;28;20469;-85
2022/06/02 08:16:57;;;;;;;2.47;1.60;;;23.80;45.50;;;;;;5029546;28;20450;-85
2022/06/02 08:19:28;;;;;;;1.40;1.30;;;23.80;45.70;;;;;;5045226;28;20419;-85
2022/06/02 08:22:01;;;;;;;2.40;1.10;;;23.80;46.00;;;;;;5045686;28;20665;-85
2022/06/02 08:24:58;;;;;;;1.30;1.20;;;23.80;46.10;;;;;;5062329;28;20409;-85
2022/06/02 08:27:48;;;;;;;1.60;1.33;;;23.80;46.30;;;;;;5061871;28;20411;-85
2022/06/02 08:30:41;;;;;;;1.10;0.93;;;23.80;46.20;;;;;;5026070;28;20408;-86
2022/06/02 08:33:33;;;;;;;1.67;1.57;;;23.80;46.10;;;;;;5009071;28;20408;-85
2022/06/02 08:36:29;;;;;;;1.37;1.27;;;23.80;46.10;;;;;;5024737;28;20452;-85
2022/06/02 08:39:09;;;;;;;1.40;1.30;;;23.80;45.90;;;;;;5008890;28;20416;-86
2022/06/02 08:41:59;;;;;;;1.47;1.37;;;23.80;45.70;;;;;;5026665;28;20403;-85
2022/06/02 08:45:05;;;;;;;1.60;1.37;;;23.80;45.80;;;;;;5045355;28;20400;-85
2022/06/02 08:48:02;;;;;;;1.20;1.10;;;23.80;45.80;;;;;;5028634;28;20765;-85
2022/06/02 08:50:43;;;;;;;2.10;1.30;;;23.80;45.60;;;;;;5029793;28;20417;-85
2022/06/02 08:53:46;;;;;;;1.57;1.47;;;23.80;45.50;;;;;;5029963;28;20396;-84
2022/06/02 08:56:34;;;;;;;2.53;1.30;;;23.80;45.80;;;;;;5045101;28;20454;-85
2022/06/02 08:59:31;;;;;;;1.77;1.47;;;23.70;45.90;;;;;;5026008;28;20411;-85
2022/06/02 09:01:59;;;;;;;4.60;1.40;;;23.70;45.40;;;;;;5009970;28;20415;-85
2022/06/02 09:04:57;;;;;;;3.40;1.47;;;23.70;45.00;;;;;;5010565;28;20882;-85
2022/06/02 09:07:23;;;;;;;1.47;1.37;;;23.70;45.20;;;;;;5007792;28;20982;-85
2022/06/02 09:10:24;;;;;;;1.83;1.33;;;23.70;45.10;;;;;;5024453;28;20428;-85
2022/06/02 09:13:22;;;;;;;2.03;1.27;;;23.70;44.80;;;;;;5010064;28;20165;-85
2022/06/02 09:16:18;;;;;;;1.73;1.63;;;23.70;44.70;;;;;;5024034;28;20420;-85
2022/06/02 09:19:02;;;;;;;1.30;1.13;;;23.60;44.20;;;;;;5064564;28;20410;-85
2022/06/02 09:21:52;;;;;;;2.37;1.57;;;23.60;44.20;;;;;;5064599;28;20399;-85
2022/06/02 09:24:45;;;;;;;1.20;1.10;;;23.60;44.30;;;;;;5060331;28;20423;-85
2022/06/02 09:27:53;;;;;;;1.90;1.10;;;23.60;44.80;;;;;;5043873;28;20462;-84
2022/06/02 09:30:25;;;;;;;1.30;1.20;;;23.60;45.00;;;;;;5028803;28;20408;-85
2022/06/02 09:36:46;;;;;;;1.50;1.30;;;23.60;45.10;;;;;;5029361;28;20398;-85
2022/06/02 09:39:31;;;;;;;1.27;1.17;;;23.60;44.90;;;;;;5029212;28;20392;-85
2022/06/02 09:42:06;;;;;;;2.37;1.30;;;23.60;44.80;;;;;;5040470;28;20507;-84
2022/06/02 09:45:01;;;;;;;1.30;1.20;;;23.60;44.90;;;;;;5008968;28;20404;-85
2022/06/02 09:47:51;;;;;;;2.30;1.40;;;23.60;45.00;;;;;;5008343;28;20515;-85
2022/06/02 09:50:26;;;;;;;1.40;1.20;;;23.60;44.80;;;;;;5008042;28;20404;-85
2022/06/02 09:53:01;;;;;;;1.30;1.20;;;23.60;45.20;;;;;;5008067;28;20483;-85
2022/06/02 09:55:46;;;;;;;3.47;1.30;;;23.60;45.20;;;;;;5007763;28;20443;-85
2022/06/02 09:58:20;;;;;;;2.27;1.73;;;23.60;45.00;;;;;;5007679;28;20509;-85
2022/06/02 10:01:03;;;;;;;1.33;1.23;;;23.70;45.10;;;;;;5009041;28;20392;-84
2022/06/02 10:03:55;;;;;;;1.33;1.23;;;23.70;45.20;;;;;;5008484;28;20419;-84
2022/06/02 10:06:45;;;;;;;1.47;1.17;;;23.70;45.20;;;;;;5007688;28;20423;-85
2022/06/02 10:09:32;;;;;;;1.50;1.40;;;23.70;45.30;;;;;;5007622;28;20431;-85
2022/06/02 10:15:36;;;;;;;1.50;1.40;;;23.70;44.80;;;;;;5014856;28;20428;-86
2022/06/02 10:18:22;;;;;;;1.83;1.30;;;23.70;44.90;;;;;;5014054;28;20536;-87
2022/06/02 10:31:55;;;;;;;1.33;1.23;;;23.70;45.20;;;;;;4973956;29;20421;-86
2022/06/02 10:35:04;;;;;;;1.57;1.47;;;23.70;44.70;;;;;;4975822;29;20900;-87
2022/06/02 10:41:37;;;;;;;1.40;1.20;;;23.60;44.70;;;;;;4962014;29;20450;-89
2022/06/02 10:44:47;;;;;;;1.50;1.40;;;23.60;44.80;;;;;;4975358;29;20413;-88
2022/06/02 10:47:53;;;;;;;1.37;1.23;;;23.60;44.40;;;;;;4974741;29;20402;-88
2022/06/02 10:51:27;;;;;;;1.90;1.60;;;23.60;44.20;;;;;;4974593;29;20482;-88
2022/06/02 11:01:36;;;;;;;2.63;1.67;;;23.60;43.80;;;;;;4816174;29;20428;-88
2022/06/02 11:04:48;;;;;;;;;;;;;;;;;;;;;
2022/06/02 11:08:08;;;;;;;1.40;1.30;;;23.60;44.50;;;;;;4754581;30;20564;-88
2022/06/02 11:11:33;;;;;;;;;;;;;;;;;;;;;
2022/06/02 11:14:47;;;;;;;1.60;1.33;;;23.60;44.10;;;;;;4733566;30;20457;-88
2022/06/02 11:18:08;;;;;;;1.40;1.30;;;23.60;44.30;;;;;;4733887;30;20477;-88
2022/06/02 11:24:48;;;;;;;2.30;1.60;;;23.60;44.60;;;;;;4742544;30;20403;-90
2022/06/02 11:28:02;;;;;;;1.60;1.50;;;23.60;44.70;;;;;;4733363;30;20437;-90
2022/06/02 11:31:08;;;;;;;1.80;1.70;;;23.60;44.60;;;;;;4755282;30;20547;-90
2022/06/02 11:33:54;;;;;;;1.87;1.57;;;23.60;44.10;;;;;;4773869;30;20482;-90
2022/06/02 11:36:35;;;;;;;1.40;1.30;;;23.60;43.90;;;;;;4781897;30;20498;-89
2022/06/02 11:39:22;;;;;;;2.10;1.40;;;23.60;43.70;;;;;;4831906;29;20451;-90
2022/06/02 11:42:17;;;;;;;1.63;1.53;;;23.60;43.90;;;;;;4862940;29;20426;-90
2022/06/02 11:44:53;;;;;;;1.60;1.50;;;23.60;44.20;;;;;;4888235;29;20410;-89
2022/06/02 11:47:40;;;;;;;1.43;1.33;;;23.60;44.50;;;;;;4888114;29;20442;-89
2022/06/02 11:50:34;;;;;;;1.70;1.60;;;23.70;44.60;;;;;;4895290;29;20882;-89
2022/06/02 11:53:26;;;;;;;1.43;1.33;;;23.70;44.60;;;;;;4957699;29;20431;-90
2022/06/02 11:56:13;;;;;;;1.57;1.47;;;23.70;44.10;;;;;;4946742;29;20431;-90
2022/06/02 11:58:49;;;;;;;1.30;1.20;;;23.70;43.70;;;;;;4930889;29;20426;-89
2022/06/02 12:01:47;;;;;;;2.10;1.47;;;23.70;43.70;;;;;;4931835;29;20478;-89
2022/06/02 12:04:44;;;;;;;1.40;1.30;;;23.70;44.00;;;;;;4996869;28;20433;-89
2022/06/02 12:07:35;;;;;;;5.00;1.27;;;23.70;43.60;;;;;;5025178;28;20880;-89
2022/06/02 12:10:19;;;;;;;1.83;1.57;;;23.70;43.70;;;;;;5026641;28;20422;-90
2022/06/02 12:13:10;;;;;;;1.50;1.40;;;23.70;43.70;;;;;;5025645;28;20494;-89
2022/06/02 12:16:13;;;;;;;2.47;1.50;;;23.70;44.40;;;;;;4969082;28;20485;-89
2022/06/02 12:19:25;;;;;;;1.63;1.47;;;23.70;44.10;;;;;;4985593;28;20893;-89
2022/06/02 12:21:56;;;;;;;1.60;1.50;;;23.70;43.90;;;;;;4969605;28;20481;-90
2022/06/02 12:24:49;;;;;;;;;;;;;;;;;;;;;
2022/06/02 12:27:36;;;;;;;1.93;1.30;;;23.70;44.00;;;;;;4977742;28;20489;-87
2022/06/02 12:30:31;;;;;;;1.33;1.10;;;23.70;44.50;;;;;;4968789;28;20433;-86
2022/06/02 12:33:21;;;;;;;1.70;1.47;;;23.70;44.80;;;;;;4964590;29;20509;-87
2022/06/02 12:35:53;;;;;;;1.80;1.60;;;23.70;44.90;;;;;;4987229;28;20503;-87
2022/06/02 12:38:43;;;;;;;1.40;1.30;;;23.80;44.30;;;;;;4969848;28;20433;-87
2022/06/02 12:41:32;;;;;;;1.63;1.30;;;23.80;44.10;;;;;;4968330;28;20417;-86
2022/06/02 12:44:37;;;;;;;1.73;1.47;;;23.80;44.50;;;;;;4943565;28;20419;-87
2022/06/02 12:47:30;;;;;;;1.73;1.40;;;23.80;44.90;;;;;;4988437;28;20497;-87
2022/06/02 12:50:17;;;;;;;1.20;1.10;;;23.80;45.20;;;;;;4964451;29;20422;-87
2022/06/02 12:53:20;;;;;;;1.60;1.50;;;23.80;45.20;;;;;;4990036;28;20476;-87
2022/06/02 12:56:16;;;;;;;1.50;1.30;;;23.80;44.80;;;;;;5025093;28;20423;-87
2022/06/02 12:58:57;;;;;;;2.33;1.60;;;23.80;44.80;;;;;;5030470;28;20423;-87
2022/06/02 13:01:32;;;;;;;2.40;2.00;;;23.80;45.10;;;;;;5027709;28;20418;-87
2022/06/02 13:04:19;;;;;;;1.70;1.50;;;23.80;45.20;;;;;;5030130;28;20417;-87
2022/06/02 13:07:12;;;;;;;1.37;1.27;;;23.90;45.40;;;;;;5045498;28;20419;-87
2022/06/02 13:10:02;;;;;;;2.60;1.50;;;23.90;45.60;;;;;;5030396;28;20408;-87
2022/06/02 13:12:28;;;;;;;3.70;1.50;;;23.90;46.20;;;;;;5030248;28;20481;-86
2022/06/02 13:15:21;;;;;;;1.60;1.47;;;23.90;45.70;;;;;;5045463;28;20419;-87
2022/06/02 13:17:59;;;;;;;2.70;1.27;;;23.90;45.80;;;;;;5041352;28;20200;-86
2022/06/02 13:21:00;;;;;;;1.87;1.33;;;24.00;45.90;;;;;;5025087;28;20443;-87
2022/06/02 13:23:27;;;;;;;1.50;1.40;;;23.90;45.90;;;;;;5007624;28;20424;-88
2022/06/02 13:26:21;;;;;;;2.60;1.50;;;24.00;46.00;;;;;;5024509;28;20413;-87
2022/06/02 13:29:10;;;;;;;1.60;1.40;;;24.00;46.10;;;;;;5008863;28;20416;-88
2022/06/02 13:31:53;;;;;;;1.17;1.07;;;24.00;46.10;;;;;;5028360;28;20444;-88
2022/06/02 13:34:57;;;;;;;3.93;1.40;;;24.00;46.20;;;;;;5008578;28;20467;-87
2022/06/02 13:37:51;;;;;;;5.23;1.50;;;24.00;46.20;;;;;;5023597;28;20463;-87
2022/06/02 13:40:47;;;;;;;2.33;1.67;;;24.00;46.30;;;;;;5008889;28;20393;-87
2022/06/02 13:43:54;;;;;;;1.50;1.30;;;24.10;46.40;;;;;;5024943;28;20484;-87
2022/06/02 13:46:51;;;;;;;2.20;1.40;;;24.10;46.50;;;;;;5028351;28;20518;-87
2022/06/02 13:49:51;;;;;;;1.60;1.20;;;24.10;46.50;;;;;;5043126;28;20431;-87
2022/06/02 13:52:20;;;;;;;1.30;1.20;;;24.10;46.50;;;;;;5024871;28;20450;-88
2022/06/02 13:58:10;;;;;;;3.10;1.70;;;24.10;46.60;;;;;;5023939;28;20538;-88
2022/06/02 14:01:10;;;;;;;1.80;1.50;;;24.10;46.60;;;;;;5021196;28;20922;-87
2022/06/02 14:03:56;;;;;;;5.47;2.27;;;24.20;46.70;;;;;;5031055;28;20420;-87
2022/06/02 14:06:28;;;;;;;1.97;1.37;;;24.10;46.70;;;;;;5020171;28;20419;-88
2022/06/02 14:09:24;;;;;;;2.10;1.33;;;24.20;46.80;;;;;;5024217;28;20435;-88
2022/06/02 14:12:38;;;;;;;1.30;1.10;;;24.20;46.70;;;;;;5019767;28;20482;-88
2022/06/02 14:15:30;;;;;;;1.30;1.20;;;24.20;46.70;;;;;;5024502;28;20843;-88
2022/06/02 14:18:28;;;;;;;2.07;1.30;;;24.20;46.80;;;;;;5043178;28;20954;-88
2022/06/02 14:21:23;;;;;;;1.87;1.63;;;24.20;46.80;;;;;;5025585;28;20522;-88
2022/06/02 14:24:13;;;;;;;1.47;1.20;;;24.20;46.80;;;;;;5015209;28;20493;-88
2022/06/02 14:27:03;;;;;;;1.60;1.20;;;24.20;46.80;;;;;;5036618;28;20942;-88
2022/06/02 14:29:29;;;;;;;1.57;1.47;;;24.20;46.80;;;;;;5043649;28;20423;-88
2022/06/02 14:32:08;;;;;;;1.43;1.33;;;24.30;46.90;;;;;;5042156;28;20531;-88
2022/06/02 14:34:43;;;;;;;1.83;1.30;;;24.20;46.90;;;;;;5027027;28;20168;-88
2022/06/02 14:37:22;;;;;;;1.50;1.30;;;24.30;47.00;;;;;;5026502;28;20522;-88
2022/06/02 14:40:01;;;;;;;1.53;1.43;;;24.30;46.90;;;;;;5027285;28;20415;-88
2022/06/02 14:43:04;;;;;;;1.50;1.20;;;24.30;46.90;;;;;;5025438;28;20419;-87
2022/06/02 14:45:58;;;;;;;1.47;1.37;;;24.30;46.90;;;;;;5025201;28;20940;-88
2022/06/02 14:49:06;;;;;;;1.30;1.20;;;24.30;47.00;;;;;;5025874;28;20419;-88
2022/06/02 14:51:39;;;;;;;1.50;1.30;;;24.30;47.00;;;;;;5025270;28;20415;-88
2022/06/02 14:54:19;;;;;;;1.60;1.17;;;24.30;47.00;;;;;;5025345;28;20491;-88
2022/06/02 14:57:17;;;;;;;2.03;1.30;;;24.30;47.00;;;;;;5025196;28;20447;-88
2022/06/02 14:59:49;;;;;;;1.57;1.10;;;24.30;47.00;;;;;;5025132;28;20411;-88
2022/06/02 15:02:24;;;;;;;1.70;1.20;;;24.30;47.10;;;;;;5025364;28;20787;-88
2022/06/02 15:05:26;;;;;;;1.53;1.30;;;24.40;47.10;;;;;;5026605;28;20434;-88
2022/06/02 15:08:14;;;;;;;2.20;1.27;;;24.40;47.20;;;;;;5025488;28;20411;-88
2022/06/02 15:10:58;;;;;;;2.00;1.30;;;24.40;47.10;;;;;;5024805;28;20984;-88
2022/06/02 15:17:02;;;;;;;2.27;1.10;;;24.40;47.20;;;;;;5025762;28;20473;-88
2022/06/02 15:19:31;;;;;;;1.40;1.20;;;24.40;47.20;;;;;;5025960;28;20780;-88
2022/06/02 15:22:18;;;;;;;1.40;1.30;;;24.40;47.20;;;;;;5026157;28;20415;-88
2022/06/02 15:25:15;;;;;;;1.30;1.00;;;24.40;47.20;;;;;;5025456;28;20396;-88
2022/06/02 15:27:57;;;;;;;1.60;1.10;;;24.40;47.20;;;;;;5021603;28;20454;-88
2022/06/02 15:30:50;;;;;;;1.23;1.10;;;24.40;47.20;;;;;;5026207;28;20489;-88
2022/06/02 15:33:51;;;;;;;1.50;1.20;;;24.40;47.20;;;;;;5025461;28;20956;-88